sensor_id;sensor_type;location;lat;lon;timestamp;P1;durP1;ratioP1;P2;durP2;ratioP2
34471;SDS011;20710;49.976;19.836;2023-08-06T00:04:01;12.00;;;9.40;;
34471;SDS011;20710;49.976;19.836;2023-08-06T00:10:03;12.40;;;9.00;;
34471;SDS011;20710;49.976;19.836;2023-08-06T00:16:08;14.00;;;10.30;;
34471;SDS011;20710;49.976;19.836;2023-08-06T00:22:13;12.60;;;11.30;;
34471;SDS011;20710;49.976;19.836;2023-08-06T00:28:14;20.30;;;14.80;;
34471;SDS011;20710;49.976;19.836;2023-08-06T00:34:17;29.70;;;20.50;;
34471;SDS011;20710;49.976;19.836;2023-08-06T00:40:20;35.50;;;24.00;;
34471;SDS011;20710;49.976;19.836;2023-08-06T00:46:23;43.50;;;26.40;;
34471;SDS011;20710;49.976;19.836;2023-08-06T00:52:25;43.90;;;27.80;;
34471;SDS011;20710;49.976;19.836;2023-08-06T00:58:30;42.60;;;28.20;;
34471;SDS011;20710;49.976;19.836;2023-08-06T01:04:32;47.60;;;27.80;;
34471;SDS011;20710;49.976;19.836;2023-08-06T01:16:58;49.90;;;29.80;;
34471;SDS011;20710;49.976;19.836;2023-08-06T01:23:01;55.80;;;29.10;;
34471;SDS011;20710;49.976;19.836;2023-08-06T01:29:07;49.90;;;26.60;;
34471;SDS011;20710;49.976;19.836;2023-08-06T01:35:12;39.20;;;23.10;;
34471;SDS011;20710;49.976;19.836;2023-08-06T01:41:15;45.80;;;24.50;;
34471;SDS011;20710;49.976;19.836;2023-08-06T01:47:17;39.30;;;24.40;;
34471;SDS011;20710;49.976;19.836;2023-08-06T01:53:20;42.80;;;24.10;;
34471;SDS011;20710;49.976;19.836;2023-08-06T01:59:21;40.20;;;22.20;;
34471;SDS011;20710;49.976;19.836;2023-08-06T02:05:23;33.50;;;22.00;;
34471;SDS011;20710;49.976;19.836;2023-08-06T02:11:25;31.50;;;20.20;;
34471;SDS011;20710;49.976;19.836;2023-08-06T02:17:26;32.10;;;19.50;;
34471;SDS011;20710;49.976;19.836;2023-08-06T02:23:28;33.60;;;21.00;;
34471;SDS011;20710;49.976;19.836;2023-08-06T02:29:34;31.70;;;19.20;;
34471;SDS011;20710;49.976;19.836;2023-08-06T02:35:36;26.00;;;18.00;;
34471;SDS011;20710;49.976;19.836;2023-08-06T02:41:41;27.00;;;16.80;;
34471;SDS011;20710;49.976;19.836;2023-08-06T02:47:43;21.10;;;13.80;;
34471;SDS011;20710;49.976;19.836;2023-08-06T02:53:45;18.50;;;12.60;;
34471;SDS011;20710;49.976;19.836;2023-08-06T02:59:48;17.50;;;13.40;;
34471;SDS011;20710;49.976;19.836;2023-08-06T03:05:54;16.90;;;13.40;;
34471;SDS011;20710;49.976;19.836;2023-08-06T03:12:02;15.50;;;11.70;;
34471;SDS011;20710;49.976;19.836;2023-08-06T03:18:04;24.70;;;15.60;;
34471;SDS011;20710;49.976;19.836;2023-08-06T03:24:08;24.80;;;15.00;;
34471;SDS011;20710;49.976;19.836;2023-08-06T03:30:17;22.50;;;14.80;;
34471;SDS011;20710;49.976;19.836;2023-08-06T03:36:19;31.60;;;19.50;;
34471;SDS011;20710;49.976;19.836;2023-08-06T03:42:22;33.90;;;19.10;;
34471;SDS011;20710;49.976;19.836;2023-08-06T03:48:31;54.90;;;27.40;;
34471;SDS011;20710;49.976;19.836;2023-08-06T03:54:36;52.20;;;26.20;;
34471;SDS011;20710;49.976;19.836;2023-08-06T04:00:38;54.10;;;27.50;;
34471;SDS011;20710;49.976;19.836;2023-08-06T04:06:43;39.70;;;23.10;;
34471;SDS011;20710;49.976;19.836;2023-08-06T04:12:45;47.20;;;24.30;;
34471;SDS011;20710;49.976;19.836;2023-08-06T04:18:47;42.00;;;24.10;;
34471;SDS011;20710;49.976;19.836;2023-08-06T04:24:48;63.00;;;27.00;;
34471;SDS011;20710;49.976;19.836;2023-08-06T04:30:50;52.20;;;25.40;;
34471;SDS011;20710;49.976;19.836;2023-08-06T04:36:52;52.50;;;25.70;;
34471;SDS011;20710;49.976;19.836;2023-08-06T04:42:54;47.60;;;24.50;;
34471;SDS011;20710;49.976;19.836;2023-08-06T04:48:56;39.50;;;23.00;;
34471;SDS011;20710;49.976;19.836;2023-08-06T04:54:58;37.80;;;22.00;;
34471;SDS011;20710;49.976;19.836;2023-08-06T05:01:02;29.60;;;20.60;;
34471;SDS011;20710;49.976;19.836;2023-08-06T05:07:05;36.30;;;21.90;;
34471;SDS011;20710;49.976;19.836;2023-08-06T05:13:07;29.80;;;19.20;;
34471;SDS011;20710;49.976;19.836;2023-08-06T05:19:08;28.70;;;18.40;;
34471;SDS011;20710;49.976;19.836;2023-08-06T05:25:12;24.90;;;17.80;;
34471;SDS011;20710;49.976;19.836;2023-08-06T05:31:16;23.50;;;16.50;;
34471;SDS011;20710;49.976;19.836;2023-08-06T05:37:18;23.80;;;17.00;;
34471;SDS011;20710;49.976;19.836;2023-08-06T05:43:19;23.10;;;15.40;;
34471;SDS011;20710;49.976;19.836;2023-08-06T05:49:21;21.10;;;15.90;;
34471;SDS011;20710;49.976;19.836;2023-08-06T05:55:33;21.00;;;15.00;;
34471;SDS011;20710;49.976;19.836;2023-08-06T06:01:34;19.60;;;14.70;;
34471;SDS011;20710;49.976;19.836;2023-08-06T06:07:44;17.80;;;14.20;;
34471;SDS011;20710;49.976;19.836;2023-08-06T06:13:46;19.90;;;14.90;;
34471;SDS011;20710;49.976;19.836;2023-08-06T06:19:47;20.20;;;14.30;;
34471;SDS011;20710;49.976;19.836;2023-08-06T06:25:49;15.60;;;11.40;;
34471;SDS011;20710;49.976;19.836;2023-08-06T06:31:54;14.50;;;11.00;;
34471;SDS011;20710;49.976;19.836;2023-08-06T06:37:58;13.00;;;10.60;;
34471;SDS011;20710;49.976;19.836;2023-08-06T06:44:02;11.90;;;9.90;;
34471;SDS011;20710;49.976;19.836;2023-08-06T06:50:04;12.30;;;8.00;;
34471;SDS011;20710;49.976;19.836;2023-08-06T06:56:06;6.80;;;5.30;;
34471;SDS011;20710;49.976;19.836;2023-08-06T07:02:08;6.10;;;5.00;;
34471;SDS011;20710;49.976;19.836;2023-08-06T07:08:14;6.20;;;4.80;;
34471;SDS011;20710;49.976;19.836;2023-08-06T07:14:17;5.70;;;4.90;;
34471;SDS011;20710;49.976;19.836;2023-08-06T07:20:20;8.30;;;3.70;;
34471;SDS011;20710;49.976;19.836;2023-08-06T07:26:23;3.90;;;1.50;;
34471;SDS011;20710;49.976;19.836;2023-08-06T07:32:25;1.50;;;0.90;;
34471;SDS011;20710;49.976;19.836;2023-08-06T07:38:27;6.30;;;1.00;;
34471;SDS011;20710;49.976;19.836;2023-08-06T07:44:35;1.90;;;0.90;;
34471;SDS011;20710;49.976;19.836;2023-08-06T07:50:37;4.70;;;0.90;;
34471;SDS011;20710;49.976;19.836;2023-08-06T07:56:39;2.40;;;0.40;;
34471;SDS011;20710;49.976;19.836;2023-08-06T08:02:42;0.80;;;0.30;;
34471;SDS011;20710;49.976;19.836;2023-08-06T08:08:44;4.70;;;0.20;;
34471;SDS011;20710;49.976;19.836;2023-08-06T08:14:47;1.00;;;0.20;;
34471;SDS011;20710;49.976;19.836;2023-08-06T08:20:48;2.20;;;0.20;;
34471;SDS011;20710;49.976;19.836;2023-08-06T08:26:51;0.40;;;0.10;;
34471;SDS011;20710;49.976;19.836;2023-08-06T08:32:53;0.50;;;0.30;;
34471;SDS011;20710;49.976;19.836;2023-08-06T08:38:56;1.20;;;0.10;;
34471;SDS011;20710;49.976;19.836;2023-08-06T08:45:02;2.60;;;0.50;;
34471;SDS011;20710;49.976;19.836;2023-08-06T08:51:08;2.30;;;0.50;;
34471;SDS011;20710;49.976;19.836;2023-08-06T08:57:10;0.80;;;0.30;;
34471;SDS011;20710;49.976;19.836;2023-08-06T09:03:12;0.80;;;0.40;;
34471;SDS011;20710;49.976;19.836;2023-08-06T09:09:22;2.00;;;0.40;;
34471;SDS011;20710;49.976;19.836;2023-08-06T09:15:29;2.50;;;0.40;;
34471;SDS011;20710;49.976;19.836;2023-08-06T09:21:31;1.90;;;0.40;;
34471;SDS011;20710;49.976;19.836;2023-08-06T09:27:33;1.60;;;0.50;;
34471;SDS011;20710;49.976;19.836;2023-08-06T09:33:35;5.90;;;0.40;;
34471;SDS011;20710;49.976;19.836;2023-08-06T09:39:38;2.30;;;0.20;;
34471;SDS011;20710;49.976;19.836;2023-08-06T09:45:41;1.00;;;0.40;;
34471;SDS011;20710;49.976;19.836;2023-08-06T09:51:49;0.80;;;0.20;;
34471;SDS011;20710;49.976;19.836;2023-08-06T09:58:08;2.10;;;0.30;;
34471;SDS011;20710;49.976;19.836;2023-08-06T10:04:10;0.50;;;0.20;;
34471;SDS011;20710;49.976;19.836;2023-08-06T10:10:28;2.20;;;0.40;;
34471;SDS011;20710;49.976;19.836;2023-08-06T10:16:33;2.40;;;0.90;;
34471;SDS011;20710;49.976;19.836;2023-08-06T10:22:35;2.60;;;1.40;;
34471;SDS011;20710;49.976;19.836;2023-08-06T10:28:38;2.60;;;0.70;;
34471;SDS011;20710;49.976;19.836;2023-08-06T10:47:25;0.70;;;0.30;;
34471;SDS011;20710;49.976;19.836;2023-08-06T10:53:32;1.80;;;0.70;;
34471;SDS011;20710;49.976;19.836;2023-08-06T10:59:33;5.30;;;0.60;;
34471;SDS011;20710;49.976;19.836;2023-08-06T11:05:35;2.80;;;1.00;;
34471;SDS011;20710;49.976;19.836;2023-08-06T11:11:37;2.50;;;1.50;;
34471;SDS011;20710;49.976;19.836;2023-08-06T11:17:39;2.60;;;0.90;;
34471;SDS011;20710;49.976;19.836;2023-08-06T11:23:42;2.00;;;1.10;;
34471;SDS011;20710;49.976;19.836;2023-08-06T11:29:44;5.20;;;1.80;;
34471;SDS011;20710;49.976;19.836;2023-08-06T11:35:47;5.90;;;1.80;;
34471;SDS011;20710;49.976;19.836;2023-08-06T11:41:49;3.60;;;0.90;;
34471;SDS011;20710;49.976;19.836;2023-08-06T11:47:51;4.30;;;0.70;;
34471;SDS011;20710;49.976;19.836;2023-08-06T11:53:56;0.90;;;0.40;;
34471;SDS011;20710;49.976;19.836;2023-08-06T12:00:01;1.10;;;0.40;;
34471;SDS011;20710;49.976;19.836;2023-08-06T12:06:14;1.20;;;0.50;;
34471;SDS011;20710;49.976;19.836;2023-08-06T12:12:16;1.70;;;0.40;;
34471;SDS011;20710;49.976;19.836;2023-08-06T12:18:21;1.30;;;0.50;;
34471;SDS011;20710;49.976;19.836;2023-08-06T12:24:35;0.90;;;0.20;;
34471;SDS011;20710;49.976;19.836;2023-08-06T12:30:39;0.60;;;0.30;;
34471;SDS011;20710;49.976;19.836;2023-08-06T12:36:44;0.30;;;0.30;;
34471;SDS011;20710;49.976;19.836;2023-08-06T12:42:46;2.60;;;0.40;;
34471;SDS011;20710;49.976;19.836;2023-08-06T12:48:48;1.30;;;0.40;;
34471;SDS011;20710;49.976;19.836;2023-08-06T12:54:50;0.80;;;0.30;;
34471;SDS011;20710;49.976;19.836;2023-08-06T13:00:51;0.30;;;0.20;;
34471;SDS011;20710;49.976;19.836;2023-08-06T13:06:53;0.20;;;0.20;;
34471;SDS011;20710;49.976;19.836;2023-08-06T13:12:55;3.00;;;1.10;;
34471;SDS011;20710;49.976;19.836;2023-08-06T13:18:56;2.90;;;1.50;;
34471;SDS011;20710;49.976;19.836;2023-08-06T13:24:58;4.80;;;2.70;;
34471;SDS011;20710;49.976;19.836;2023-08-06T13:30:59;4.50;;;1.60;;
34471;SDS011;20710;49.976;19.836;2023-08-06T13:37:02;4.70;;;0.90;;
34471;SDS011;20710;49.976;19.836;2023-08-06T13:43:04;1.00;;;0.60;;
34471;SDS011;20710;49.976;19.836;2023-08-06T13:49:05;0.80;;;0.40;;
34471;SDS011;20710;49.976;19.836;2023-08-06T13:55:08;2.00;;;0.60;;
34471;SDS011;20710;49.976;19.836;2023-08-06T14:01:11;1.10;;;0.60;;
34471;SDS011;20710;49.976;19.836;2023-08-06T14:07:12;1.90;;;0.70;;
34471;SDS011;20710;49.976;19.836;2023-08-06T14:13:14;3.80;;;0.80;;
34471;SDS011;20710;49.976;19.836;2023-08-06T14:19:18;4.40;;;3.10;;
34471;SDS011;20710;49.976;19.836;2023-08-06T14:25:19;3.50;;;1.90;;
34471;SDS011;20710;49.976;19.836;2023-08-06T14:31:22;3.90;;;1.50;;
34471;SDS011;20710;49.976;19.836;2023-08-06T14:37:29;1.70;;;0.80;;
34471;SDS011;20710;49.976;19.836;2023-08-06T14:43:31;1.50;;;0.80;;
34471;SDS011;20710;49.976;19.836;2023-08-06T14:49:33;1.90;;;1.10;;
34471;SDS011;20710;49.976;19.836;2023-08-06T14:55:34;3.80;;;1.10;;
34471;SDS011;20710;49.976;19.836;2023-08-06T15:01:36;2.20;;;0.70;;
34471;SDS011;20710;49.976;19.836;2023-08-06T15:07:37;1.50;;;0.30;;
34471;SDS011;20710;49.976;19.836;2023-08-06T15:13:39;2.70;;;0.50;;
34471;SDS011;20710;49.976;19.836;2023-08-06T15:19:41;2.40;;;0.80;;
34471;SDS011;20710;49.976;19.836;2023-08-06T15:25:44;3.10;;;0.90;;
34471;SDS011;20710;49.976;19.836;2023-08-06T15:31:46;2.80;;;1.80;;
34471;SDS011;20710;49.976;19.836;2023-08-06T15:37:48;4.00;;;1.60;;
34471;SDS011;20710;49.976;19.836;2023-08-06T15:43:49;9.30;;;2.60;;
34471;SDS011;20710;49.976;19.836;2023-08-06T15:49:51;13.80;;;3.90;;
34471;SDS011;20710;49.976;19.836;2023-08-06T15:55:53;8.60;;;3.00;;
34471;SDS011;20710;49.976;19.836;2023-08-06T16:01:55;3.90;;;1.40;;
34471;SDS011;20710;49.976;19.836;2023-08-06T16:08:00;1.60;;;0.70;;
34471;SDS011;20710;49.976;19.836;2023-08-06T16:14:02;3.10;;;1.20;;
34471;SDS011;20710;49.976;19.836;2023-08-06T16:20:04;4.00;;;2.50;;
34471;SDS011;20710;49.976;19.836;2023-08-06T16:26:08;2.10;;;0.90;;
34471;SDS011;20710;49.976;19.836;2023-08-06T16:32:10;1.30;;;0.80;;
34471;SDS011;20710;49.976;19.836;2023-08-06T16:38:12;2.90;;;2.00;;
34471;SDS011;20710;49.976;19.836;2023-08-06T16:44:14;2.00;;;1.20;;
34471;SDS011;20710;49.976;19.836;2023-08-06T16:50:18;2.90;;;1.50;;
34471;SDS011;20710;49.976;19.836;2023-08-06T16:56:20;4.00;;;1.70;;
34471;SDS011;20710;49.976;19.836;2023-08-06T17:02:23;2.20;;;1.10;;
34471;SDS011;20710;49.976;19.836;2023-08-06T17:08:25;2.70;;;1.40;;
34471;SDS011;20710;49.976;19.836;2023-08-06T17:14:29;1.40;;;0.90;;
34471;SDS011;20710;49.976;19.836;2023-08-06T17:20:30;3.80;;;0.90;;
34471;SDS011;20710;49.976;19.836;2023-08-06T17:26:33;4.80;;;1.70;;
34471;SDS011;20710;49.976;19.836;2023-08-06T17:32:35;1.60;;;0.70;;
34471;SDS011;20710;49.976;19.836;2023-08-06T17:38:45;4.50;;;0.90;;
34471;SDS011;20710;49.976;19.836;2023-08-06T17:44:50;1.20;;;0.60;;
34471;SDS011;20710;49.976;19.836;2023-08-06T17:50:51;1.50;;;0.50;;
34471;SDS011;20710;49.976;19.836;2023-08-06T17:56:54;1.60;;;0.70;;
34471;SDS011;20710;49.976;19.836;2023-08-06T18:02:55;2.50;;;0.50;;
34471;SDS011;20710;49.976;19.836;2023-08-06T18:08:57;1.30;;;0.80;;
34471;SDS011;20710;49.976;19.836;2023-08-06T18:14:59;1.40;;;0.70;;
34471;SDS011;20710;49.976;19.836;2023-08-06T18:21:00;5.60;;;0.90;;
34471;SDS011;20710;49.976;19.836;2023-08-06T18:27:02;2.50;;;0.60;;
34471;SDS011;20710;49.976;19.836;2023-08-06T18:33:04;1.30;;;0.90;;
34471;SDS011;20710;49.976;19.836;2023-08-06T18:39:06;0.80;;;0.60;;
34471;SDS011;20710;49.976;19.836;2023-08-06T18:45:09;2.00;;;0.70;;
34471;SDS011;20710;49.976;19.836;2023-08-06T18:51:11;2.90;;;1.00;;
34471;SDS011;20710;49.976;19.836;2023-08-06T18:57:13;3.10;;;0.90;;
34471;SDS011;20710;49.976;19.836;2023-08-06T19:03:14;2.30;;;0.70;;
34471;SDS011;20710;49.976;19.836;2023-08-06T19:09:16;1.30;;;0.80;;
34471;SDS011;20710;49.976;19.836;2023-08-06T19:15:18;6.40;;;1.20;;
34471;SDS011;20710;49.976;19.836;2023-08-06T19:21:20;4.60;;;0.90;;
34471;SDS011;20710;49.976;19.836;2023-08-06T19:27:21;1.60;;;0.50;;
34471;SDS011;20710;49.976;19.836;2023-08-06T19:33:24;4.90;;;0.80;;
34471;SDS011;20710;49.976;19.836;2023-08-06T19:39:47;0.80;;;0.70;;
34471;SDS011;20710;49.976;19.836;2023-08-06T19:45:49;0.80;;;0.70;;
34471;SDS011;20710;49.976;19.836;2023-08-06T19:51:51;1.70;;;0.80;;
34471;SDS011;20710;49.976;19.836;2023-08-06T19:57:56;1.90;;;0.90;;
34471;SDS011;20710;49.976;19.836;2023-08-06T20:03:57;1.30;;;0.80;;
34471;SDS011;20710;49.976;19.836;2023-08-06T20:09:59;5.10;;;1.90;;
34471;SDS011;20710;49.976;19.836;2023-08-06T20:16:01;2.50;;;1.10;;
34471;SDS011;20710;49.976;19.836;2023-08-06T20:22:03;7.00;;;1.40;;
34471;SDS011;20710;49.976;19.836;2023-08-06T20:28:05;1.50;;;0.80;;
34471;SDS011;20710;49.976;19.836;2023-08-06T20:34:06;2.10;;;0.90;;
34471;SDS011;20710;49.976;19.836;2023-08-06T20:40:08;1.60;;;0.90;;
34471;SDS011;20710;49.976;19.836;2023-08-06T20:46:10;3.10;;;0.90;;
34471;SDS011;20710;49.976;19.836;2023-08-06T20:52:12;3.10;;;0.90;;
34471;SDS011;20710;49.976;19.836;2023-08-06T20:58:13;4.70;;;1.20;;
34471;SDS011;20710;49.976;19.836;2023-08-06T21:04:17;5.60;;;2.60;;
34471;SDS011;20710;49.976;19.836;2023-08-06T21:10:19;12.20;;;4.40;;
34471;SDS011;20710;49.976;19.836;2023-08-06T21:16:20;10.90;;;4.20;;
34471;SDS011;20710;49.976;19.836;2023-08-06T21:22:22;5.80;;;2.40;;
34471;SDS011;20710;49.976;19.836;2023-08-06T21:28:24;3.70;;;1.70;;
34471;SDS011;20710;49.976;19.836;2023-08-06T21:34:27;4.60;;;2.40;;
34471;SDS011;20710;49.976;19.836;2023-08-06T21:40:32;3.20;;;2.00;;
34471;SDS011;20710;49.976;19.836;2023-08-06T21:46:35;2.10;;;1.50;;
34471;SDS011;20710;49.976;19.836;2023-08-06T21:52:37;4.50;;;2.70;;
34471;SDS011;20710;49.976;19.836;2023-08-06T22:04:44;5.10;;;2.60;;
34471;SDS011;20710;49.976;19.836;2023-08-06T22:10:47;4.80;;;2.30;;
34471;SDS011;20710;49.976;19.836;2023-08-06T22:16:49;4.50;;;2.90;;
34471;SDS011;20710;49.976;19.836;2023-08-06T22:22:51;5.80;;;4.30;;
34471;SDS011;20710;49.976;19.836;2023-08-06T22:28:53;10.40;;;8.40;;
34471;SDS011;20710;49.976;19.836;2023-08-06T22:34:56;9.40;;;6.90;;
34471;SDS011;20710;49.976;19.836;2023-08-06T22:40:58;6.00;;;4.00;;
34471;SDS011;20710;49.976;19.836;2023-08-06T22:47:00;4.20;;;2.40;;
34471;SDS011;20710;49.976;19.836;2023-08-06T22:53:01;4.40;;;1.90;;
34471;SDS011;20710;49.976;19.836;2023-08-06T22:59:03;4.40;;;2.00;;
34471;SDS011;20710;49.976;19.836;2023-08-06T23:05:05;3.40;;;1.70;;
34471;SDS011;20710;49.976;19.836;2023-08-06T23:11:07;2.50;;;1.70;;
34471;SDS011;20710;49.976;19.836;2023-08-06T23:17:09;4.30;;;2.00;;
34471;SDS011;20710;49.976;19.836;2023-08-06T23:23:11;2.90;;;2.10;;
34471;SDS011;20710;49.976;19.836;2023-08-06T23:29:12;3.40;;;2.20;;
34471;SDS011;20710;49.976;19.836;2023-08-06T23:35:15;4.00;;;1.90;;
34471;SDS011;20710;49.976;19.836;2023-08-06T23:41:20;4.50;;;1.90;;
34471;SDS011;20710;49.976;19.836;2023-08-06T23:47:22;2.40;;;2.00;;
34471;SDS011;20710;49.976;19.836;2023-08-06T23:53:28;3.20;;;2.10;;
34471;SDS011;20710;49.976;19.836;2023-08-06T23:59:29;2.80;;;1.70;;
